Time;durP1;ratioP1;P1;durP2;ratioP2;P2;SDS_P1;SDS_P2;PMS_P1;PMS_P2;Temp;Humidity;BMP_temperature;BMP_pressure;BME280_temperature;BME280_humidity;BME280_pressure;Samples;Min_cycle;Max_cycle;Signal;HPM_P1;HPM_P2
2021/12/13 00:02:45;;;;;;;33.35;14.80;;;;;;;;;;5010516;28;20038;-73
2021/12/13 00:05:23;;;;;;;32.30;13.75;;;;;;;;;;5022120;28;20044;-73
2021/12/13 00:07:58;;;;;;;36.65;13.98;;;;;;;;;;5010785;28;20184;-73
2021/12/13 00:10:31;;;;;;;34.88;13.63;;;;;;;;;;5028823;28;20068;-73
2021/12/13 00:13:00;;;;;;;;;;;;;;;;;;5026934;28;20533;-73
2021/12/13 00:15:32;;;;;;;33.40;12.77;;;;;;;;;;5028120;28;19921;-73
2021/12/13 00:17:59;;;;;;;35.45;14.02;;;;;;;;;;5026617;28;20071;-73
2021/12/13 00:20:29;;;;;;;32.08;12.90;;;;;;;;;;5010960;28;20029;-73
2021/12/13 00:23:02;;;;;;;32.30;14.15;;;;;;;;;;5028709;28;20021;-73
2021/12/13 00:25:29;;;;;;;37.00;13.93;;;;;;;;;;5011268;28;20117;-73
2021/12/13 00:28:17;;;;;;;33.25;13.43;;;;;;;;;;5010624;28;20273;-73
2021/12/13 00:31:00;;;;;;;32.50;13.70;;;;;;;;;;5010030;28;20450;-73
2021/12/13 00:33:37;;;;;;;31.52;12.57;;;;;;;;;;5009869;28;20141;-73
2021/12/13 00:36:15;;;;;;;32.60;12.57;;;;;;;;;;5022787;28;20041;-73
2021/12/13 00:38:46;;;;;;;32.97;12.68;;;;;;;;;;5028572;28;20044;-73
2021/12/13 00:41:16;;;;;;;31.73;13.52;;;;;;;;;;5022565;28;20080;-73
2021/12/13 00:43:53;;;;;;;32.38;12.65;;;;;;;;;;5025714;28;20052;-73
2021/12/13 00:46:20;;;;;;;31.48;12.50;;;;;;;;;;5027511;28;20045;-73
2021/12/13 00:48:50;;;;;;;34.42;13.57;;;;;;;;;;5027810;28;20083;-73
2021/12/13 00:51:33;;;;;;;31.30;12.45;;;;;;;;;;5009831;28;20045;-73
2021/12/13 00:54:02;;;;;;;30.63;12.35;;;;;;;;;;5010441;28;20057;-73
2021/12/13 00:57:00;;;;;;;34.42;12.15;;;;;;;;;;5016889;28;20033;-73
2021/12/13 00:59:28;;;;;;;29.40;11.77;;;;;;;;;;5010357;28;20120;-73
2021/12/13 01:02:05;;;;;;;29.73;12.38;;;;;;;;;;5026731;28;20029;-73
2021/12/13 01:05:02;;;;;;;31.55;12.10;;;;;;;;;;5022394;28;20041;-73
2021/12/13 01:07:33;;;;;;;30.67;12.13;;;;;;;;;;5019863;28;20046;-73
2021/12/13 01:10:36;;;;;;;30.40;11.77;;;;;;;;;;5023405;28;20065;-73
2021/12/13 01:13:05;;;;;;;27.92;11.82;;;;;;;;;;5026793;28;20156;-73
2021/12/13 01:15:40;;;;;;;34.92;12.35;;;;;;;;;;5027494;28;20125;-73
2021/12/13 01:18:32;;;;;;;28.40;11.63;;;;;;;;;;5009725;28;20588;-73
2021/12/13 01:21:31;;;;;;;33.38;11.93;;;;;;;;;;5007033;28;20052;-73
2021/12/13 01:24:06;;;;;;;29.58;10.90;;;;;;;;;;5026408;28;20033;-73
2021/12/13 01:26:39;;;;;;;28.75;11.95;;;;;;;;;;5021294;28;20041;-73
2021/12/13 01:29:11;;;;;;;25.13;11.00;;;;;;;;;;5021525;28;20506;-73
2021/12/13 01:31:59;;;;;;;27.35;10.55;;;;;;;;;;5025934;28;20564;-73
2021/12/13 01:34:26;;;;;;;28.17;10.82;;;;;;;;;;5016566;28;20045;-73
2021/12/13 01:37:05;;;;;;;28.15;11.20;;;;;;;;;;5023751;28;20044;-73
2021/12/13 01:39:33;;;;;;;30.27;10.60;;;;;;;;;;5018041;28;20619;-73
2021/12/13 01:42:04;;;;;;;27.40;11.07;;;;;;;;;;5029266;28;20033;-73
2021/12/13 01:44:35;;;;;;;31.67;11.10;;;;;;;;;;5009681;28;20045;-73
2021/12/13 01:47:08;;;;;;;29.60;10.85;;;;;;;;;;5010335;28;20136;-73
2021/12/13 01:49:39;;;;;;;26.17;10.82;;;;;;;;;;5022825;28;20052;-73
2021/12/13 01:52:23;;;;;;;23.38;9.60;;;;;;;;;;5025846;28;20106;-73
2021/12/13 01:54:49;;;;;;;29.45;11.40;;;;;;;;;;5026156;28;20044;-73
2021/12/13 01:59:57;;;;;;;26.45;9.73;;;;;;;;;;5020176;28;20435;-73
2021/12/13 02:02:32;;;;;;;26.55;10.73;;;;;;;;;;5030291;28;20031;-73
2021/12/13 02:05:04;;;;;;;24.75;10.13;;;;;;;;;;5026316;28;20037;-73
2021/12/13 02:07:41;;;;;;;25.05;9.18;;;;;;;;;;5019748;28;20117;-73
2021/12/13 02:10:30;;;;;;;30.65;11.05;;;;;;;;;;5027302;28;20530;-73
2021/12/13 02:13:01;;;;;;;27.13;10.77;;;;;;;;;;5026856;28;20184;-73
2021/12/13 02:18:17;;;;;;;28.83;9.70;;;;;;;;;;5027371;28;20767;-73
2021/12/13 02:20:47;;;;;;;26.30;9.80;;;;;;;;;;5009528;28;20111;-73
2021/12/13 02:23:14;;;;;;;24.15;8.85;;;;;;;;;;5010214;28;20029;-73
2021/12/13 02:25:44;;;;;;;23.83;9.73;;;;;;;;;;5025716;28;20038;-73
2021/12/13 02:28:15;;;;;;;27.27;10.38;;;;;;;;;;5026399;28;20038;-73
2021/12/13 02:30:56;;;;;;;24.40;9.13;;;;;;;;;;5025231;28;20045;-73
2021/12/13 02:33:32;;;;;;;28.67;10.30;;;;;;;;;;5024548;28;20132;-73
2021/12/13 02:36:19;;;;;;;24.27;9.55;;;;;;;;;;5025723;28;20029;-73
2021/12/13 02:38:47;;;;;;;35.10;11.98;;;;;;;;;;5028045;28;20033;-73
2021/12/13 02:41:14;;;;;;;24.95;10.13;;;;;;;;;;5028083;28;20032;-73
2021/12/13 02:43:43;;;;;;;26.17;9.60;;;;;;;;;;5030960;28;20048;-73
2021/12/13 02:46:09;;;;;;;25.67;9.48;;;;;;;;;;5012029;28;20220;-73
2021/12/13 02:48:46;;;;;;;24.30;9.95;;;;;;;;;;5030725;28;20133;-73
2021/12/13 02:51:20;;;;;;;25.40;9.82;;;;;;;;;;5010201;28;20459;-73
2021/12/13 02:53:52;;;;;;;24.20;9.05;;;;;;;;;;4992706;28;20191;-73
2021/12/13 02:56:22;;;;;;;25.85;9.45;;;;;;;;;;5004989;28;20044;-73
2021/12/13 02:58:49;;;;;;;23.55;8.60;;;;;;;;;;4994020;28;20052;-73
2021/12/13 03:01:23;;;;;;;26.77;9.88;;;;;;;;;;5007666;28;20046;-73
2021/12/13 03:03:53;;;;;;;29.33;9.93;;;;;;;;;;4991909;28;20092;-73
2021/12/13 03:06:24;;;;;;;25.20;9.57;;;;;;;;;;5011037;28;20046;-73
2021/12/13 03:08:59;;;;;;;27.42;9.82;;;;;;;;;;5010724;28;20033;-73
2021/12/13 03:11:30;;;;;;;27.77;10.73;;;;;;;;;;4994520;28;20064;-73
2021/12/13 03:14:11;;;;;;;30.08;11.13;;;;;;;;;;4992926;28;20026;-73
2021/12/13 03:16:57;;;;;;;23.08;9.65;;;;;;;;;;5016963;28;20068;-73
2021/12/13 03:19:32;;;;;;;28.70;9.93;;;;;;;;;;4991931;28;20040;-73
2021/12/13 03:22:22;;;;;;;24.35;9.50;;;;;;;;;;5008910;28;20046;-73
2021/12/13 03:25:05;;;;;;;25.25;9.15;;;;;;;;;;5009028;28;20117;-73
2021/12/13 03:27:47;;;;;;;22.13;10.15;;;;;;;;;;4995793;28;20045;-73
2021/12/13 03:30:18;;;;;;;23.88;10.30;;;;;;;;;;4999189;28;20054;-73
2021/12/13 03:32:52;;;;;;;28.17;10.65;;;;;;;;;;5004092;28;20049;-73
2021/12/13 03:35:34;;;;;;;24.88;9.60;;;;;;;;;;4998434;28;20506;-73
2021/12/13 03:38:22;;;;;;;28.67;11.52;;;;;;;;;;5008638;28;20408;-73
2021/12/13 03:40:49;;;;;;;26.65;10.00;;;;;;;;;;5011519;28;20081;-73
2021/12/13 03:43:23;;;;;;;31.73;11.43;;;;;;;;;;5007303;28;20065;-73
2021/12/13 03:45:53;;;;;;;28.40;10.55;;;;;;;;;;5020242;28;20061;-73
2021/12/13 03:48:22;;;;;;;26.83;9.20;;;;;;;;;;5009112;28;20038;-73
2021/12/13 03:50:51;;;;;;;30.25;11.15;;;;;;;;;;5026230;28;20523;-73
2021/12/13 03:53:20;;;;;;;27.73;10.68;;;;;;;;;;5029594;28;20029;-73
2021/12/13 03:55:51;;;;;;;28.52;11.07;;;;;;;;;;5030221;28;20029;-73
2021/12/13 03:58:19;;;;;;;28.00;10.40;;;;;;;;;;5024266;28;20037;-73
2021/12/13 04:00:57;;;;;;;30.42;10.70;;;;;;;;;;5027631;28;20076;-73
2021/12/13 04:03:24;;;;;;;27.40;10.57;;;;;;;;;;5029500;28;20649;-73
2021/12/13 04:05:53;;;;;;;28.45;10.13;;;;;;;;;;5029213;28;20816;-73
2021/12/13 04:08:20;;;;;;;29.85;11.10;;;;;;;;;;5032479;28;20032;-73
2021/12/13 04:10:53;;;;;;;30.33;10.52;;;;;;;;;;5024516;28;20147;-73
2021/12/13 04:13:23;;;;;;;27.38;10.10;;;;;;;;;;5027981;28;20538;-73
2021/12/13 04:15:58;;;;;;;22.85;9.40;;;;;;;;;;5030744;28;20150;-73
2021/12/13 04:21:19;;;;;;;23.30;9.05;;;;;;;;;;5017617;28;20102;-73
2021/12/13 04:23:56;;;;;;;21.20;8.57;;;;;;;;;;5027251;28;20091;-73
2021/12/13 04:26:23;;;;;;;21.65;9.80;;;;;;;;;;5029060;28;20517;-73
2021/12/13 04:28:53;;;;;;;23.02;8.65;;;;;;;;;;5030966;28;20970;-73
2021/12/13 04:31:23;;;;;;;20.65;8.88;;;;;;;;;;5038351;28;20082;-73
2021/12/13 04:34:09;;;;;;;24.40;8.30;;;;;;;;;;5030383;28;20049;-73
2021/12/13 04:36:40;;;;;;;20.55;8.75;;;;;;;;;;5026851;28;20839;-73
2021/12/13 04:39:18;;;;;;;19.20;8.13;;;;;;;;;;5028460;28;20037;-73
2021/12/13 04:41:54;;;;;;;18.33;7.43;;;;;;;;;;5023736;28;20036;-73
2021/12/13 04:44:43;;;;;;;21.17;8.63;;;;;;;;;;5028982;28;20037;-73
2021/12/13 04:47:14;;;;;;;17.15;6.55;;;;;;;;;;5030794;28;20112;-73
2021/12/13 04:49:46;;;;;;;26.83;8.00;;;;;;;;;;5028438;28;20057;-73
2021/12/13 04:52:15;;;;;;;15.48;6.47;;;;;;;;;;5012362;28;20061;-73
2021/12/13 04:54:44;;;;;;;18.33;7.25;;;;;;;;;;5009434;28;20092;-73
2021/12/13 04:57:10;;;;;;;17.48;7.25;;;;;;;;;;5029058;28;20041;-73
2021/12/13 04:59:36;;;;;;;17.13;7.32;;;;;;;;;;5027335;28;20038;-73
2021/12/13 05:02:07;;;;;;;17.08;6.70;;;;;;;;;;5030467;28;20498;-73
2021/12/13 05:04:32;;;;;;;19.48;6.57;;;;;;;;;;5007106;28;20053;-73
2021/12/13 05:07:01;;;;;;;16.17;6.72;;;;;;;;;;5023709;28;20046;-73
2021/12/13 05:09:27;;;;;;;14.15;6.47;;;;;;;;;;5029127;28;20033;-73
2021/12/13 05:12:09;;;;;;;16.75;6.93;;;;;;;;;;5028491;28;20056;-73
2021/12/13 05:14:40;;;;;;;19.55;6.72;;;;;;;;;;5011670;28;20095;-73
2021/12/13 05:17:10;;;;;;;17.33;7.28;;;;;;;;;;5028115;28;20018;-73
2021/12/13 05:19:41;;;;;;;17.83;7.45;;;;;;;;;;5028480;28;20049;-73
2021/12/13 05:22:09;;;;;;;18.00;6.80;;;;;;;;;;5030290;28;20423;-73
2021/12/13 05:24:42;;;;;;;17.85;7.05;;;;;;;;;;5008836;28;20106;-74
2021/12/13 05:27:10;;;;;;;;;;;;;;;;;;5029952;28;20099;-72
2021/12/13 05:29:43;;;;;;;19.40;7.32;;;;;;;;;;5009582;28;19925;-73
2021/12/13 05:32:35;;;;;;;18.33;7.25;;;;;;;;;;5011986;28;20053;-73
2021/12/13 05:35:13;;;;;;;19.60;7.72;;;;;;;;;;5011190;28;20085;-73
2021/12/13 05:37:46;;;;;;;18.67;8.00;;;;;;;;;;5029378;28;20051;-73
2021/12/13 05:40:17;;;;;;;19.05;7.97;;;;;;;;;;5028890;28;20113;-73
2021/12/13 05:42:46;;;;;;;24.15;7.97;;;;;;;;;;5024890;28;20558;-73
2021/12/13 05:45:18;;;;;;;21.40;8.05;;;;;;;;;;5031653;28;20045;-75
2021/12/13 05:47:59;;;;;;;19.80;8.27;;;;;;;;;;5008204;28;20069;-75
2021/12/13 05:50:29;;;;;;;19.23;7.60;;;;;;;;;;5028476;28;20049;-75
2021/12/13 05:53:03;;;;;;;18.30;8.48;;;;;;;;;;5027687;28;20059;-75
2021/12/13 05:55:29;;;;;;;15.85;7.18;;;;;;;;;;5028825;28;20041;-75
2021/12/13 05:57:55;;;;;;;19.50;7.93;;;;;;;;;;5027291;28;20594;-74
2021/12/13 06:00:27;;;;;;;19.23;8.32;;;;;;;;;;5025671;28;20041;-74
2021/12/13 06:03:08;;;;;;;21.40;9.05;;;;;;;;;;5026931;28;20616;-77
2021/12/13 06:05:40;;;;;;;19.25;7.80;;;;;;;;;;5022633;28;20047;-72
2021/12/13 06:08:10;;;;;;;18.55;8.10;;;;;;;;;;5019600;28;20056;-72
2021/12/13 06:10:48;;;;;;;19.63;8.30;;;;;;;;;;5024420;28;20041;-72
2021/12/13 06:13:42;;;;;;;14.52;6.47;;;;;;;;;;5024354;28;20530;-72
2021/12/13 06:16:09;;;;;;;74.57;28.77;;;;;;;;;;5016204;28;20053;-72
2021/12/13 06:18:57;;;;;;;23.17;8.50;;;;;;;;;;5032720;28;20037;-72
2021/12/13 06:21:41;;;;;;;15.07;7.65;;;;;;;;;;5023478;28;20055;-72
2021/12/13 06:24:09;;;;;;;21.00;8.32;;;;;;;;;;5014812;28;20128;-72
2021/12/13 06:26:34;;;;;;;19.67;9.05;;;;;;;;;;5031974;28;20057;-72
2021/12/13 06:29:03;;;;;;;19.88;8.65;;;;;;;;;;5035851;28;20033;-72
2021/12/13 06:31:41;;;;;;;17.73;8.18;;;;;;;;;;5029873;28;20128;-72
2021/12/13 06:34:13;;;;;;;16.80;7.25;;;;;;;;;;5013575;28;20120;-72
2021/12/13 06:36:42;;;;;;;16.75;8.52;;;;;;;;;;5031401;28;20045;-72
2021/12/13 06:39:21;;;;;;;17.38;8.23;;;;;;;;;;5029890;28;20034;-72
2021/12/13 06:41:49;;;;;;;18.55;7.80;;;;;;;;;;5032211;28;20448;-72
2021/12/13 06:44:22;;;;;;;16.52;7.05;;;;;;;;;;5031802;28;20533;-72
2021/12/13 06:47:11;;;;;;;16.23;7.05;;;;;;;;;;5025308;28;20602;-72
2021/12/13 06:49:44;;;;;;;17.33;7.95;;;;;;;;;;5010970;28;20049;-72
2021/12/13 06:52:12;;;;;;;11.20;4.43;;;;;;;;;;5024396;28;20038;-72
2021/12/13 06:54:48;;;;;;;14.82;6.18;;;;;;;;;;5030604;28;20064;-72
2021/12/13 06:57:38;;;;;;;18.33;7.95;;;;;;;;;;5031011;28;20404;-72
2021/12/13 07:00:07;;;;;;;18.80;7.93;;;;;;;;;;5013038;28;20067;-72
2021/12/13 07:02:35;;;;;;;18.52;8.30;;;;;;;;;;5027741;28;20050;-72
2021/12/13 07:05:06;;;;;;;19.55;7.82;;;;;;;;;;5028382;28;20033;-72
2021/12/13 07:08:12;;;;;;;13.65;6.55;;;;;;;;;;5036464;28;20055;-72
2021/12/13 07:10:44;;;;;;;16.48;7.00;;;;;;;;;;5030207;28;20044;-72
2021/12/13 07:13:24;;;;;;;13.40;6.77;;;;;;;;;;5031811;28;20518;-72
2021/12/13 07:15:49;;;;;;;11.63;5.80;;;;;;;;;;5031729;28;20038;-72
2021/12/13 07:18:29;;;;;;;14.55;7.10;;;;;;;;;;5025129;28;20095;-72
2021/12/13 07:21:42;;;;;;;9.30;3.92;;;;;;;;;;5021182;28;20034;-72
2021/12/13 07:24:16;;;;;;;13.38;5.85;;;;;;;;;;5029460;28;20041;-72
2021/12/13 07:26:58;;;;;;;16.92;6.80;;;;;;;;;;5027310;28;20056;-72
2021/12/13 07:29:25;;;;;;;14.35;6.13;;;;;;;;;;5019281;28;20045;-71
2021/12/13 07:32:06;;;;;;;12.68;4.82;;;;;;;;;;5012548;28;20509;-72
2021/12/13 07:34:33;;;;;;;14.77;5.22;;;;;;;;;;5029929;28;20045;-72
2021/12/13 07:37:02;;;;;;;16.80;6.40;;;;;;;;;;5031198;28;20507;-72
2021/12/13 07:39:34;;;;;;;10.13;5.80;;;;;;;;;;5013751;28;20188;-72
2021/12/13 07:42:05;;;;;;;15.77;6.55;;;;;;;;;;5011791;28;20064;-72
2021/12/13 07:44:39;;;;;;;12.98;5.95;;;;;;;;;;5028600;28;20025;-72
2021/12/13 07:47:17;;;;;;;15.35;6.95;;;;;;;;;;5024445;28;20029;-72
2021/12/13 07:49:46;;;;;;;13.25;6.38;;;;;;;;;;5016051;28;20161;-72
2021/12/13 07:52:26;;;;;;;11.75;6.03;;;;;;;;;;5005497;28;20041;-72
2021/12/13 07:54:52;;;;;;;14.77;6.25;;;;;;;;;;5011124;28;20699;-72
2021/12/13 07:57:29;;;;;;;12.20;5.82;;;;;;;;;;5008865;28;20100;-72
2021/12/13 07:59:55;;;;;;;10.00;4.55;;;;;;;;;;5009640;28;20435;-72
2021/12/13 08:02:25;;;;;;;14.63;6.28;;;;;;;;;;5009281;28;20048;-72
2021/12/13 08:05:09;;;;;;;13.10;6.10;;;;;;;;;;5010064;28;20073;-71
2021/12/13 08:07:53;;;;;;;7.43;3.92;;;;;;;;;;4992733;28;20049;-71
2021/12/13 08:10:30;;;;;;;13.85;6.93;;;;;;;;;;5003103;28;20042;-72
2021/12/13 08:13:06;;;;;;;11.77;5.85;;;;;;;;;;5010134;28;20125;-72
2021/12/13 08:15:56;;;;;;;9.73;5.18;;;;;;;;;;5002661;28;20037;-71
2021/12/13 08:18:27;;;;;;;14.30;5.97;;;;;;;;;;5005792;28;20065;-71
2021/12/13 08:21:03;;;;;;;13.75;6.07;;;;;;;;;;5010188;28;20535;-71
2021/12/13 08:23:40;;;;;;;10.93;5.80;;;;;;;;;;5010010;28;20149;-71
2021/12/13 08:26:09;;;;;;;12.45;5.53;;;;;;;;;;5004672;28;20036;-72
2021/12/13 08:28:44;;;;;;;13.82;5.95;;;;;;;;;;5009395;28;20066;-71
2021/12/13 08:31:20;;;;;;;12.65;5.47;;;;;;;;;;5003302;28;20031;-71
2021/12/13 08:33:49;;;;;;;12.20;5.93;;;;;;;;;;4992333;28;20037;-71
2021/12/13 08:36:36;;;;;;;10.77;5.85;;;;;;;;;;4992044;28;20045;-72
2021/12/13 08:39:13;;;;;;;13.93;5.75;;;;;;;;;;5006025;28;20096;-72
2021/12/13 08:41:52;;;;;;;12.05;5.70;;;;;;;;;;5008483;28;20116;-71
2021/12/13 08:44:20;;;;;;;11.55;5.45;;;;;;;;;;5008879;28;20097;-71
2021/12/13 08:46:55;;;;;;;13.93;6.35;;;;;;;;;;5003432;28;20668;-71
2021/12/13 08:49:29;;;;;;;11.55;6.32;;;;;;;;;;5006393;28;20115;-71
2021/12/13 08:52:10;;;;;;;11.32;5.28;;;;;;;;;;5027266;28;20578;-71
2021/12/13 08:54:58;;;;;;;13.57;5.82;;;;;;;;;;5024007;28;20128;-72
2021/12/13 08:57:45;;;;;;;15.75;6.85;;;;;;;;;;5026034;28;20041;-72
2021/12/13 09:00:13;;;;;;;12.40;6.18;;;;;;;;;;5023063;28;20120;-71
2021/12/13 09:02:46;;;;;;;16.00;6.15;;;;;;;;;;5025137;28;20507;-71
2021/12/13 09:05:17;;;;;;;10.45;5.35;;;;;;;;;;5009552;28;20040;-72
2021/12/13 09:07:51;;;;;;;11.88;5.88;;;;;;;;;;5022174;28;20204;-72
2021/12/13 09:10:17;;;;;;;12.90;5.75;;;;;;;;;;5024400;28;20041;-71
2021/12/13 09:12:45;;;;;;;12.18;6.35;;;;;;;;;;5024217;28;20442;-72
2021/12/13 09:15:23;;;;;;;12.45;6.30;;;;;;;;;;5010451;28;20121;-72
2021/12/13 09:17:50;;;;;;;12.68;5.53;;;;;;;;;;5022931;28;20102;-75
2021/12/13 09:20:24;;;;;;;8.85;4.88;;;;;;;;;;5024885;28;20031;-73
2021/12/13 09:22:55;;;;;;;10.60;5.85;;;;;;;;;;5027600;28;20390;-72
2021/12/13 09:25:33;;;;;;;10.82;4.95;;;;;;;;;;5026165;28;20037;-72
2021/12/13 09:28:11;;;;;;;9.25;5.50;;;;;;;;;;5023354;28;20511;-72
2021/12/13 09:30:58;;;;;;;11.38;5.43;;;;;;;;;;5018338;28;20041;-73
2021/12/13 09:33:47;;;;;;;12.05;5.90;;;;;;;;;;5023013;28;20045;-73
2021/12/13 09:36:18;;;;;;;10.38;5.40;;;;;;;;;;5007395;28;20045;-73
2021/12/13 09:39:04;;;;;;;10.48;5.20;;;;;;;;;;5026219;28;20095;-73
2021/12/13 09:41:35;;;;;;;8.68;4.22;;;;;;;;;;5019875;28;20033;-73
2021/12/13 09:44:14;;;;;;;7.80;4.20;;;;;;;;;;5026601;28;20574;-73
2021/12/13 09:46:52;;;;;;;9.07;4.30;;;;;;;;;;5027835;28;20584;-73
2021/12/13 09:49:36;;;;;;;11.02;5.57;;;;;;;;;;5026851;28;20049;-73
2021/12/13 09:52:13;;;;;;;11.60;5.13;;;;;;;;;;5031883;28;20045;-73
2021/12/13 09:54:47;;;;;;;12.35;5.75;;;;;;;;;;5013530;28;20530;-73
2021/12/13 09:57:17;;;;;;;8.77;4.47;;;;;;;;;;5014015;28;20029;-73
2021/12/13 09:59:50;;;;;;;9.68;4.90;;;;;;;;;;5029558;28;20033;-73
2021/12/13 10:02:40;;;;;;;10.35;4.80;;;;;;;;;;5027643;28;20608;-73
2021/12/13 10:05:12;;;;;;;9.55;5.05;;;;;;;;;;5006721;28;20076;-73
2021/12/13 10:07:41;;;;;;;13.20;5.47;;;;;;;;;;5026320;28;20107;-70
2021/12/13 10:10:13;;;;;;;9.63;5.72;;;;;;;;;;5025344;28;20026;-70
2021/12/13 10:12:58;;;;;;;12.77;6.03;;;;;;;;;;5025171;28;20068;-70
2021/12/13 10:15:33;;;;;;;11.02;5.70;;;;;;;;;;5018502;28;20478;-70
2021/12/13 10:18:04;;;;;;;12.82;6.70;;;;;;;;;;5027549;28;20037;-71
2021/12/13 10:20:51;;;;;;;13.00;6.85;;;;;;;;;;5032331;28;20447;-72
2021/12/13 10:23:22;;;;;;;9.38;5.00;;;;;;;;;;5023021;28;20060;-72
2021/12/13 10:25:50;;;;;;;11.32;5.55;;;;;;;;;;5008654;28;20021;-72
2021/12/13 10:28:20;;;;;;;11.07;5.53;;;;;;;;;;5020115;28;20037;-72
2021/12/13 10:30:54;;;;;;;11.80;5.72;;;;;;;;;;5021210;28;20048;-71
2021/12/13 10:33:20;;;;;;;;;;;;;;;;;;5025766;28;20041;-71
2021/12/13 10:35:46;;;;;;;10.90;5.78;;;;;;;;;;5029274;28;20474;-72
2021/12/13 10:38:31;;;;;;;9.82;5.30;;;;;;;;;;5029119;28;20021;-73
2021/12/13 10:41:05;;;;;;;10.90;5.28;;;;;;;;;;5013101;28;20046;-70
2021/12/13 10:43:35;;;;;;;8.55;4.60;;;;;;;;;;5011486;28;20038;-71
2021/12/13 10:46:07;;;;;;;9.05;5.15;;;;;;;;;;5016363;28;20042;-78
2021/12/13 10:48:42;;;;;;;8.95;5.05;;;;;;;;;;5019204;28;20045;-77
2021/12/13 10:51:17;;;;;;;10.20;5.60;;;;;;;;;;5004171;28;20132;-77
2021/12/13 10:53:45;;;;;;;7.70;4.93;;;;;;;;;;5004961;28;20046;-73
2021/12/13 10:56:16;;;;;;;9.10;5.15;;;;;;;;;;5009890;28;20025;-75
2021/12/13 10:58:46;;;;;;;10.80;5.75;;;;;;;;;;5006703;28;20077;-74
2021/12/13 11:01:31;;;;;;;9.18;5.25;;;;;;;;;;5009561;28;20040;-75
2021/12/13 11:04:00;;;;;;;8.02;4.38;;;;;;;;;;5012307;28;20041;-74
2021/12/13 11:06:27;;;;;;;8.65;5.10;;;;;;;;;;5006254;28;20042;-72
2021/12/13 11:08:53;;;;;;;9.98;5.28;;;;;;;;;;5004949;28;20044;-75
2021/12/13 11:11:27;;;;;;;9.10;5.25;;;;;;;;;;5009600;28;20033;-76
2021/12/13 11:13:56;;;;;;;12.27;5.40;;;;;;;;;;4991252;28;20029;-78
2021/12/13 11:16:29;;;;;;;9.20;5.18;;;;;;;;;;4999810;28;20507;-72
2021/12/13 11:18:55;;;;;;;7.85;4.75;;;;;;;;;;5008581;28;20053;-74
2021/12/13 11:21:32;;;;;;;8.80;4.97;;;;;;;;;;5010191;28;20041;-77
2021/12/13 11:23:58;;;;;;;14.07;5.50;;;;;;;;;;5007119;28;20037;-72
2021/12/13 11:26:31;;;;;;;11.13;5.18;;;;;;;;;;4984843;28;20045;-73
2021/12/13 11:29:00;;;;;;;12.93;6.00;;;;;;;;;;5005426;28;20038;-73
2021/12/13 11:31:28;;;;;;;11.98;6.20;;;;;;;;;;5008330;28;20088;-74
2021/12/13 11:34:03;;;;;;;10.80;5.45;;;;;;;;;;5023272;28;20049;-75
2021/12/13 11:36:45;;;;;;;10.82;5.75;;;;;;;;;;4995714;28;20038;-76
2021/12/13 11:39:47;;;;;;;11.70;5.22;;;;;;;;;;5003170;28;20041;-77
2021/12/13 11:42:12;;;;;;;13.75;7.03;;;;;;;;;;5003245;28;20172;-77
2021/12/13 11:44:59;;;;;;;14.30;6.70;;;;;;;;;;5006033;28;20128;-75
2021/12/13 11:48:01;;;;;;;14.75;5.90;;;;;;;;;;4997471;28;20490;-75
2021/12/13 11:50:32;;;;;;;14.60;6.85;;;;;;;;;;5021547;28;20076;-74
2021/12/13 11:53:35;;;;;;;17.00;7.70;;;;;;;;;;5024664;28;20477;-74
2021/12/13 11:56:32;;;;;;;10.90;6.07;;;;;;;;;;5005863;28;20049;-73
2021/12/13 11:59:29;;;;;;;11.18;6.20;;;;;;;;;;5008250;28;20045;-73
2021/12/13 12:02:10;;;;;;;13.90;6.68;;;;;;;;;;5010706;28;20061;-75
2021/12/13 12:05:05;;;;;;;13.25;6.78;;;;;;;;;;5022482;28;20103;-71
2021/12/13 12:07:56;;;;;;;12.55;7.45;;;;;;;;;;5012561;28;20459;-71
2021/12/13 12:10:47;;;;;;;13.65;7.30;;;;;;;;;;5026987;28;20037;-71
2021/12/13 12:13:14;;;;;;;13.18;7.10;;;;;;;;;;5023636;28;20033;-72
2021/12/13 12:15:42;;;;;;;9.70;6.20;;;;;;;;;;5026951;28;20048;-72
2021/12/13 12:18:15;;;;;;;12.23;6.25;;;;;;;;;;5026489;28;20037;-72
2021/12/13 12:20:46;;;;;;;10.90;5.95;;;;;;;;;;5027340;28;20129;-72
2021/12/13 12:23:27;;;;;;;11.05;5.90;;;;;;;;;;5023920;28;20033;-72
2021/12/13 12:25:55;;;;;;;12.35;6.07;;;;;;;;;;5008506;28;20049;-72
2021/12/13 12:28:22;;;;;;;11.60;5.82;;;;;;;;;;5005333;28;20037;-72
2021/12/13 12:30:51;;;;;;;11.65;6.30;;;;;;;;;;5026035;28;20038;-74
2021/12/13 12:33:27;;;;;;;9.32;5.13;;;;;;;;;;5011586;28;20473;-77
2021/12/13 12:35:53;;;;;;;9.18;5.10;;;;;;;;;;5027904;28;20148;-80
2021/12/13 12:38:25;;;;;;;11.00;5.65;;;;;;;;;;5006231;28;20025;-74
2021/12/13 12:41:25;;;;;;;11.80;6.25;;;;;;;;;;5004082;28;20073;-80
2021/12/13 12:43:53;;;;;;;11.25;6.20;;;;;;;;;;4970092;28;20102;-75
2021/12/13 12:46:21;;;;;;;10.73;5.30;;;;;;;;;;5032230;28;20041;-79
2021/12/13 12:48:50;;;;;;;11.73;6.20;;;;;;;;;;5022435;28;20057;-75
2021/12/13 12:51:22;;;;;;;9.88;5.72;;;;;;;;;;5020739;28;20164;-90
2021/12/13 12:53:52;;;;;;;10.48;5.68;;;;;;;;;;5009087;28;20463;-82
2021/12/13 12:56:20;;;;;;;10.45;5.40;;;;;;;;;;4994364;28;20049;-83
2021/12/13 12:58:48;;;;;;;8.50;5.38;;;;;;;;;;5015601;28;20029;-75
2021/12/13 13:01:21;;;;;;;10.63;5.70;;;;;;;;;;5024097;28;20029;-75
2021/12/13 13:03:47;;;;;;;11.38;5.65;;;;;;;;;;5007993;28;20045;-74
2021/12/13 13:06:19;;;;;;;9.50;5.43;;;;;;;;;;5023484;28;20045;-74
2021/12/13 13:08:47;;;;;;;11.20;5.93;;;;;;;;;;5022993;28;20037;-76
2021/12/13 13:13:42;;;;;;;10.55;5.70;;;;;;;;;;5020689;28;20156;-77
2021/12/13 13:16:08;;;;;;;13.27;6.20;;;;;;;;;;5007222;28;20700;-78
2021/12/13 13:18:37;;;;;;;10.95;5.50;;;;;;;;;;5014029;28;20042;-76
2021/12/13 13:21:05;;;;;;;10.95;5.75;;;;;;;;;;5001278;28;20521;-75
2021/12/13 13:23:44;;;;;;;9.65;5.13;;;;;;;;;;4994661;28;20466;-75
2021/12/13 13:26:11;;;;;;;10.40;5.90;;;;;;;;;;5020444;28;20042;-75
2021/12/13 13:28:42;;;;;;;10.70;5.50;;;;;;;;;;5000105;28;20060;-73
2021/12/13 13:31:38;;;;;;;10.77;5.72;;;;;;;;;;5005286;28;20029;-74
2021/12/13 13:34:13;;;;;;;9.82;5.45;;;;;;;;;;5007872;28;20040;-76
2021/12/13 13:36:59;;;;;;;10.52;5.75;;;;;;;;;;5002901;28;20049;-74
2021/12/13 13:39:26;;;;;;;12.73;5.70;;;;;;;;;;4992050;28;20080;-76
2021/12/13 13:42:05;;;;;;;11.05;5.28;;;;;;;;;;5022790;28;20053;-75
2021/12/13 13:44:40;;;;;;;12.60;5.93;;;;;;;;;;5024504;28;20048;-75
2021/12/13 13:47:09;;;;;;;9.65;6.07;;;;;;;;;;5016379;28;20132;-75
2021/12/13 13:49:36;;;;;;;12.43;6.45;;;;;;;;;;5017238;28;20030;-74
2021/12/13 13:52:20;;;;;;;9.82;5.75;;;;;;;;;;5002488;28;20494;-74
2021/12/13 13:54:49;;;;;;;11.77;6.72;;;;;;;;;;5023501;28;20042;-75
2021/12/13 13:57:18;;;;;;;11.98;6.55;;;;;;;;;;5024936;28;20560;-75
2021/12/13 13:59:46;;;;;;;15.23;6.50;;;;;;;;;;5019853;28;20044;-77
2021/12/13 14:02:16;;;;;;;12.90;6.80;;;;;;;;;;5024349;28;20037;-77
2021/12/13 14:04:43;;;;;;;12.07;6.65;;;;;;;;;;5000715;28;20044;-72
2021/12/13 14:07:17;;;;;;;13.90;6.78;;;;;;;;;;5016182;28;20018;-76
2021/12/13 14:09:46;;;;;;;10.82;6.20;;;;;;;;;;5017670;28;20096;-74
2021/12/13 14:12:47;;;;;;;10.55;6.10;;;;;;;;;;5021468;28;20034;-76
2021/12/13 14:15:16;;;;;;;12.23;6.30;;;;;;;;;;5005154;28;20149;-74
2021/12/13 14:17:51;;;;;;;11.90;7.13;;;;;;;;;;5000035;28;20021;-74
2021/12/13 14:20:24;;;;;;;13.73;6.70;;;;;;;;;;5015059;28;20037;-74
2021/12/13 14:22:52;;;;;;;12.43;6.18;;;;;;;;;;5021823;28;20521;-73
2021/12/13 14:25:31;;;;;;;14.25;7.18;;;;;;;;;;5024951;28;20125;-72
2021/12/13 14:27:56;;;;;;;13.20;7.10;;;;;;;;;;5022207;28;20033;-78
2021/12/13 14:30:29;;;;;;;10.68;6.47;;;;;;;;;;5019439;28;20499;-75
2021/12/13 14:32:54;;;;;;;14.40;7.60;;;;;;;;;;5018405;28;20033;-74
2021/12/13 14:35:30;;;;;;;14.18;7.15;;;;;;;;;;5020265;28;20468;-74
2021/12/13 14:38:05;;;;;;;14.00;7.47;;;;;;;;;;4999132;28;20138;-75
2021/12/13 14:40:43;;;;;;;13.98;6.93;;;;;;;;;;5025448;28;20541;-77
2021/12/13 14:43:18;;;;;;;14.45;6.78;;;;;;;;;;5025816;28;20041;-75
2021/12/13 14:45:44;;;;;;;13.38;6.82;;;;;;;;;;5028290;28;20044;-77
2021/12/13 14:48:09;;;;;;;13.13;7.40;;;;;;;;;;5018316;28;20038;-75
2021/12/13 14:50:35;;;;;;;11.88;6.60;;;;;;;;;;5023197;28;20069;-74
2021/12/13 14:53:08;;;;;;;10.25;6.10;;;;;;;;;;5022920;28;20051;-73
2021/12/13 14:55:44;;;;;;;12.48;6.18;;;;;;;;;;5025876;28;20380;-76
2021/12/13 14:58:16;;;;;;;10.45;5.63;;;;;;;;;;4997444;28;20030;-74
2021/12/13 15:00:49;;;;;;;11.20;5.63;;;;;;;;;;5028464;28;20067;-77
2021/12/13 15:03:24;;;;;;;9.25;5.35;;;;;;;;;;5027207;28;20120;-73
2021/12/13 15:06:02;;;;;;;11.80;6.22;;;;;;;;;;5026460;28;20398;-71
2021/12/13 15:08:30;;;;;;;12.07;6.70;;;;;;;;;;5018879;28;20079;-74
2021/12/13 15:11:01;;;;;;;10.27;6.20;;;;;;;;;;5021591;28;20041;-76
2021/12/13 15:13:27;;;;;;;11.07;5.95;;;;;;;;;;5018377;28;20048;-70
2021/12/13 15:15:57;;;;;;;11.02;6.13;;;;;;;;;;5025871;28;20459;-74
2021/12/13 15:18:54;;;;;;;9.50;5.43;;;;;;;;;;5028280;28;20037;-75
2021/12/13 15:21:27;;;;;;;12.02;6.15;;;;;;;;;;5007788;28;20392;-75
2021/12/13 15:23:59;;;;;;;9.30;5.93;;;;;;;;;;5021922;28;20788;-73
2021/12/13 15:26:31;;;;;;;11.52;6.32;;;;;;;;;;5027698;28;20540;-75